Time;durP1;ratioP1;P1;durP2;ratioP2;P2;SDS_P1;SDS_P2;PMS_P1;PMS_P2;Temp;Humidity;BMP_temperature;BMP_pressure;BME280_temperature;BME280_humidity;BME280_pressure;Samples;Min_cycle;Max_cycle;Signal;HPM_P1;HPM_P2
2022/06/23 00:01:42;;;;;;;;;21.00;15.50;;;;;22.99;57.82;100757.94;5050299;28;45435;-66
2022/06/23 00:04:16;;;;;;;;;20.00;18.75;;;;;22.97;57.85;100744.63;5068481;28;45412;-65
2022/06/23 00:07:03;;;;;;;;;19.75;16.50;;;;;23.00;58.11;100740.78;5070255;28;45485;-63
2022/06/23 00:09:44;;;;;;;;;17.75;17.25;;;;;23.02;57.88;100749.50;5065961;28;46175;-64
2022/06/23 00:12:23;;;;;;;;;20.25;17.50;;;;;23.02;58.23;100760.25;5069672;28;45505;-69
2022/06/23 00:15:02;;;;;;;;;20.00;17.75;;;;;23.01;57.86;100762.09;5065050;28;45373;-66
2022/06/23 00:17:34;;;;;;;;;18.00;16.00;;;;;23.03;58.01;100770.81;5066473;28;45275;-66
2022/06/23 00:20:27;;;;;;;;;22.00;19.75;;;;;23.02;57.93;100769.16;5068435;28;45275;-65
2022/06/23 00:23:02;;;;;;;;;15.50;14.50;;;;;22.99;58.44;100750.69;5062267;28;45354;-58
2022/06/23 00:26:01;;;;;;;;;15.50;14.75;;;;;23.16;58.86;100756.03;5064136;27;45429;-58
2022/06/23 00:28:47;;;;;;;;;27.50;22.50;;;;;23.18;58.93;100754.84;5068768;28;45766;-58
2022/06/23 00:31:28;;;;;;;;;23.50;19.75;;;;;23.18;58.91;100754.00;5066227;28;45423;-58
2022/06/23 00:33:56;;;;;;;;;15.50;15.00;;;;;23.22;59.45;100741.88;5065604;28;45512;-60
2022/06/23 00:36:30;;;;;;;;;20.25;19.25;;;;;23.29;59.36;100738.31;5066737;28;45707;-58
2022/06/23 00:38:56;;;;;;;;;19.25;17.25;;;;;23.27;59.40;100726.91;5071708;27;45406;-59
2022/06/23 00:41:28;;;;;;;;;20.75;19.75;;;;;23.25;59.31;100720.88;5062749;28;45438;-59
2022/06/23 00:43:56;;;;;;;;;22.50;21.00;;;;;23.16;59.79;100727.31;5063626;28;45389;-58
2022/06/23 00:46:41;;;;;;;;;23.75;19.25;;;;;23.05;59.73;100736.56;5064004;28;45369;-58
2022/06/23 00:49:17;;;;;;;;;26.00;24.25;;;;;22.97;60.13;100733.88;5063829;28;45901;-67
2022/06/23 00:51:51;;;;;;;;;32.25;27.00;;;;;22.81;59.89;100731.22;5062734;28;46560;-67
2022/06/23 00:54:28;;;;;;;;;27.50;23.00;;;;;22.68;60.06;100731.75;5067827;28;45211;-68
2022/06/23 00:56:53;;;;;;;;;29.50;26.25;;;;;22.61;60.05;100727.22;5063162;28;45523;-67
2022/06/23 00:59:38;;;;;;;;;25.00;23.50;;;;;22.50;60.32;100714.97;5063778;28;45315;-67
2022/06/23 01:02:06;;;;;;;;;29.00;26.00;;;;;22.42;60.37;100723.84;5063477;28;45389;-67
2022/06/23 01:04:56;;;;;;;;;25.75;22.75;;;;;22.38;60.46;100721.69;5063413;28;45287;-67
2022/06/23 01:07:41;;;;;;;;;27.50;24.25;;;;;22.29;61.08;100721.69;5064007;28;45486;-67
2022/06/23 01:10:16;;;;;;;;;30.50;28.50;;;;;22.25;61.03;100722.19;5063436;28;45524;-67
2022/06/23 01:12:47;;;;;;;;;31.00;30.25;;;;;22.20;61.21;100716.50;5063057;28;45347;-67
2022/06/23 01:15:24;;;;;;;;;32.25;28.50;;;;;22.16;61.68;100710.59;5063421;28;45229;-67
2022/06/23 01:17:56;;;;;;;;;28.50;27.25;;;;;22.13;61.53;100712.81;5063471;28;45286;-67
2022/06/23 01:20:31;;;;;;;;;28.75;25.00;;;;;22.10;61.62;100715.78;5063619;28;45331;-66
2022/06/23 01:23:26;;;;;;;;;27.00;25.00;;;;;22.07;61.99;100711.56;5063203;28;46154;-67
2022/06/23 01:26:13;;;;;;;;;24.25;23.00;;;;;22.02;62.05;100705.88;5053350;28;45478;-67
2022/06/23 01:28:41;;;;;;;;;26.50;24.25;;;;;21.98;62.23;100701.84;5063735;28;45240;-67
2022/06/23 01:31:19;;;;;;;;;27.50;26.75;;;;;21.92;62.41;100705.19;5063112;28;45289;-67
2022/06/23 01:34:22;;;;;;;;;23.00;22.75;;;;;21.88;62.72;100702.00;5063181;28;45371;-67
2022/06/23 01:36:54;;;;;;;;;22.25;20.50;;;;;21.84;62.54;100699.81;5063299;28;45422;-67
2022/06/23 01:39:34;;;;;;;;;28.25;25.50;;;;;21.80;62.78;100704.66;5062847;28;45240;-67
2022/06/23 01:42:03;;;;;;;;;27.25;26.00;;;;;21.79;62.89;100694.94;5062618;28;45331;-67
2022/06/23 01:44:56;;;;;;;;;28.75;26.75;;;;;21.80;63.02;100695.75;5062897;28;45280;-67
2022/06/23 01:47:31;;;;;;;;;28.75;26.00;;;;;21.81;63.31;100692.09;5062755;28;45407;-67
2022/06/23 01:50:35;;;;;;;;;32.50;28.75;;;;;21.80;63.29;100688.56;5062231;28;45586;-67
2022/06/23 01:53:23;;;;;;;;;30.50;28.50;;;;;21.76;63.39;100681.03;5053027;28;45537;-67
2022/06/23 01:56:42;;;;;;;;;29.25;26.50;;;;;21.76;63.45;100691.75;5062261;28;46117;-64
2022/06/23 01:59:26;;;;;;;;;32.50;29.25;;;;;21.74;63.85;100694.59;5053788;28;45501;-65
2022/06/23 02:02:10;;;;;;;;;29.75;27.25;;;;;21.76;63.97;100691.75;5062755;28;45356;-62
2022/06/23 02:04:53;;;;;;;;;31.25;28.25;;;;;21.73;63.93;100691.09;5062516;28;45544;-62
2022/06/23 02:07:36;;;;;;;;;29.50;27.75;;;;;21.70;64.29;100686.03;5062580;28;45402;-63
2022/06/23 02:10:17;;;;;;;;;32.00;29.75;;;;;21.70;64.21;100688.72;5062413;28;45386;-63
2022/06/23 02:12:52;;;;;;;;;33.25;30.50;;;;;21.70;64.25;100691.38;5062248;28;45236;-63
2022/06/23 02:15:47;;;;;;;;;26.75;26.75;;;;;21.69;64.40;100691.56;5062713;28;45354;-63
2022/06/23 02:18:21;;;;;;;;;33.25;31.00;;;;;21.65;64.62;100685.69;5058909;28;46239;-63
2022/06/23 02:21:20;;;;;;;;;29.75;28.00;;;;;21.65;64.62;100693.75;5062389;28;45165;-62
2022/06/23 02:23:52;;;;;;;;;32.75;30.25;;;;;21.66;64.89;100683.84;5062545;28;45364;-63
2022/06/23 02:26:37;;;;;;;;;31.25;28.00;;;;;21.69;64.82;100694.25;5062112;28;45273;-63
2022/06/23 02:29:42;;;;;;;;;34.50;29.00;;;;;21.68;65.09;100688.03;5062272;28;46188;-63
2022/06/23 02:32:26;;;;;;;;;29.25;25.00;;;;;21.70;65.06;100685.19;5058647;28;45249;-63
2022/06/23 02:34:59;;;;;;;;;32.00;28.75;;;;;21.70;65.22;100686.03;5062083;28;45374;-63
2022/06/23 02:37:43;;;;;;;;;30.50;29.50;;;;;21.71;64.95;100684.19;5062272;28;45435;-63
2022/06/23 02:40:18;;;;;;;;;34.50;28.75;;;;;21.72;65.00;100683.19;5061834;28;45417;-63
2022/06/23 02:42:48;;;;;;;;;31.25;30.75;;;;;21.72;65.40;100680.50;5061985;28;45396;-63
2022/06/23 02:45:41;;;;;;;;;31.00;30.25;;;;;21.70;65.66;100675.31;5062252;28;45369;-63
2022/06/23 02:48:37;;;;;;;;;30.75;28.25;;;;;21.71;65.55;100685.03;5061840;28;45228;-63
2022/06/23 02:51:13;;;;;;;;;30.75;28.00;;;;;21.73;65.81;100682.19;5061706;28;45393;-63
2022/06/23 02:53:57;;;;;;;;;33.75;29.50;;;;;21.72;65.81;100676.00;5066274;28;45400;-64
2022/06/23 02:56:35;;;;;;;;;31.75;30.25;;;;;21.69;65.88;100679.00;5061582;28;45410;-63
2022/06/23 02:59:29;;;;;;;;;32.75;29.25;;;;;21.68;65.94;100677.31;5061967;28;45439;-63
2022/06/23 03:02:02;;;;;;;;;29.50;28.00;;;;;21.67;65.94;100678.31;5060751;28;45356;-63
2022/06/23 03:04:40;;;;;;;;;29.50;27.75;;;;;21.70;66.11;100672.63;5061574;28;45405;-63
2022/06/23 03:07:20;;;;;;;;;33.50;30.25;;;;;21.73;66.11;100682.19;5061942;28;45335;-63
2022/06/23 03:09:53;;;;;;;;;32.50;30.75;;;;;21.74;66.10;100687.41;5061715;28;45523;-63
2022/06/23 03:12:29;;;;;;;;;32.50;30.25;;;;;21.74;66.20;100682.03;5061169;28;45446;-64
2022/06/23 03:15:08;;;;;;;;;33.50;31.50;;;;;21.74;66.27;100681.19;5061573;28;45247;-64
2022/06/23 03:18:01;;;;;;;;;38.25;32.25;;;;;21.73;66.63;100680.34;5061277;28;45235;-64
2022/06/23 03:20:47;;;;;;;;;34.25;31.00;;;;;21.74;66.53;100676.66;5061568;28;45537;-64
2022/06/23 03:23:44;;;;;;;;;33.75;30.75;;;;;21.78;66.56;100690.56;5061430;28;45516;-63
2022/06/23 03:26:35;;;;;;;;;26.50;26.50;;;;;21.80;66.57;100687.72;5048657;28;45364;-64
2022/06/23 03:29:16;;;;;;;;;33.25;30.00;;;;;21.81;66.75;100692.09;5061310;28;45371;-63
2022/06/23 03:31:44;;;;;;;;;30.75;29.50;;;;;21.81;67.01;100692.94;5061314;28;45557;-63
2022/06/23 03:34:33;;;;;;;;;16.75;15.50;;;;;21.82;67.15;100696.47;5061232;28;46060;-64
2022/06/23 03:37:06;;;;;;;;;12.25;8.75;;;;;21.84;67.00;100695.28;5061239;28;45299;-63
2022/06/23 03:42:50;;;;;;;;;8.00;6.50;;;;;21.88;67.32;100702.00;5061129;28;45228;-63
2022/06/23 03:45:33;;;;;;;;;6.00;5.75;;;;;21.90;67.28;100702.66;5061085;28;46213;-64
2022/06/23 03:48:08;;;;;;;;;6.50;4.50;;;;;21.88;67.26;100704.69;5061060;28;45335;-63
2022/06/23 03:50:40;;;;;;;;;5.25;4.00;;;;;21.88;67.03;100712.72;5060953;28;45351;-64
2022/06/23 03:53:17;;;;;;;;;6.25;4.75;;;;;21.88;67.10;100718.09;5065513;28;45609;-63
2022/06/23 03:55:49;;;;;;;;;6.50;6.50;;;;;21.86;67.12;100722.75;5060538;28;46276;-63
2022/06/23 03:58:27;;;;;;;;;6.50;6.00;;;;;21.86;67.12;100719.25;5060962;28;45211;-64
2022/06/23 04:01:00;;;;;;;;;5.75;5.50;;;;;21.85;66.84;100736.34;5060733;28;45450;-64
2022/06/23 04:03:58;;;;;;;;;4.50;4.25;;;;;21.83;67.00;100735.69;5059455;28;45316;-64
2022/06/23 04:06:31;;;;;;;;;4.75;3.25;;;;;21.82;66.84;100734.84;5060922;28;46174;-63
2022/06/23 04:09:20;;;;;;;;;8.00;4.50;;;;;21.81;66.75;100746.56;5060740;28;45582;-64
2022/06/23 04:12:02;;;;;;;;;5.00;3.75;;;;;21.81;66.90;100741.22;5060503;28;45327;-64
2022/06/23 04:14:33;;;;;;;;;7.00;3.50;;;;;21.79;66.96;100742.34;5064360;28;45323;-63
2022/06/23 04:17:18;;;;;;;;;7.00;3.50;;;;;21.79;66.90;100745.88;5064216;28;45450;-64
2022/06/23 04:19:51;;;;;;;;;5.75;4.00;;;;;21.79;66.61;100751.25;5064486;28;45332;-63
2022/06/23 04:22:20;;;;;;;;;5.75;3.75;;;;;21.80;66.61;100752.91;5064490;28;45424;-64
2022/06/23 04:24:49;;;;;;;;;4.00;3.50;;;;;21.82;66.79;100752.78;5064391;28;45632;-64
2022/06/23 04:27:40;;;;;;;;;5.50;3.75;;;;;21.82;66.73;100755.47;5063805;28;45343;-63
2022/06/23 04:30:06;;;;;;;;;6.00;5.00;;;;;21.80;66.33;100760.13;5060854;28;45410;-64
2022/06/23 04:32:35;;;;;;;;;4.75;4.75;;;;;21.78;66.37;100764.81;5064242;28;45484;-64
2022/06/23 04:35:04;;;;;;;;;3.75;3.50;;;;;21.78;66.48;100764.81;5064268;28;45305;-63
2022/06/23 04:37:56;;;;;;;;;3.00;3.00;;;;;21.78;66.44;100765.66;5064054;28;46137;-64
2022/06/23 04:40:34;;;;;;;;;5.00;2.50;;;;;21.73;66.31;100768.00;5062739;28;45457;-63
2022/06/23 04:43:15;;;;;;;;;4.00;3.25;;;;;21.70;66.30;100763.78;5061974;28;45361;-63
2022/06/23 04:46:09;;;;;;;;;7.50;4.50;;;;;21.70;66.03;100765.63;5062197;28;45722;-64
2022/06/23 04:49:00;;;;;;;;;5.00;4.00;;;;;21.68;66.35;100764.97;5063800;28;45432;-64
2022/06/23 04:51:32;;;;;;;;;3.25;2.50;;;;;21.65;66.13;100765.28;5063447;28;45319;-64
2022/06/23 04:54:01;;;;;;;;;5.00;3.50;;;;;21.60;66.06;100765.75;5068634;28;45302;-64
2022/06/23 04:56:44;;;;;;;;;4.25;3.75;;;;;21.56;66.13;100772.44;5063401;28;45514;-64
2022/06/23 04:59:31;;;;;;;;;4.25;3.25;;;;;21.57;66.13;100767.94;5063271;28;45405;-64
2022/06/23 05:02:01;;;;;;;;;4.25;4.25;;;;;21.57;66.07;100770.63;5062549;28;45382;-64
2022/06/23 05:04:33;;;;;;;;;4.50;3.75;;;;;21.55;66.16;100770.75;5063375;28;46455;-64
2022/06/23 05:07:01;;;;;;;;;3.25;3.00;;;;;21.57;66.16;100767.94;5062190;28;45374;-64
2022/06/23 05:09:38;;;;;;;;;5.50;3.00;;;;;21.57;66.23;100765.25;5063317;28;46070;-64
2022/06/23 05:12:29;;;;;;;;;5.50;2.50;;;;;21.58;65.89;100775.81;5062888;28;45679;-64
2022/06/23 05:14:54;;;;;;;;;4.25;3.00;;;;;21.59;66.11;100772.13;5063634;28;45275;-65
2022/06/23 05:17:24;;;;;;;;;3.75;3.50;;;;;21.60;66.19;100772.97;5063057;28;45570;-64
2022/06/23 05:19:57;;;;;;;;;3.00;3.00;;;;;21.55;65.93;100773.44;5063329;28;45295;-64
2022/06/23 05:22:31;;;;;;;;;5.00;3.50;;;;;21.57;66.02;100797.44;5063259;28;45199;-65
2022/06/23 05:25:06;;;;;;;;;2.75;2.75;;;;;21.55;66.06;100781.47;5062454;28;45444;-64
2022/06/23 05:27:35;;;;;;;;;3.75;2.75;;;;;21.52;66.24;100775.63;5061114;28;45368;-65
2022/06/23 05:30:00;;;;;;;;;4.25;4.25;;;;;21.56;66.07;100782.31;5063102;28;46685;-65
2022/06/23 05:33:04;;;;;;;;;5.75;4.00;;;;;21.58;66.09;100791.06;5073225;28;45146;-65
2022/06/23 05:35:37;;;;;;;;;3.50;3.50;;;;;21.62;66.12;100790.56;5065962;28;45506;-65
2022/06/23 05:38:09;;;;;;;;;7.25;4.75;;;;;21.66;66.13;100791.94;5068532;27;45550;-65
2022/06/23 05:40:51;;;;;;;;;4.75;3.75;;;;;21.69;65.95;100791.59;5065850;28;45375;-64
2022/06/23 05:43:17;;;;;;;;;10.50;7.00;;;;;21.73;66.10;100794.81;5064942;28;45272;-65
2022/06/23 05:45:48;;;;;;;;;5.75;3.75;;;;;21.77;65.97;100787.28;5067362;28;45539;-65
2022/06/23 05:48:23;;;;;;;;;3.50;3.50;;;;;21.86;66.20;100778.25;5066505;28;45579;-65
2022/06/23 05:51:09;;;;;;;;;5.00;2.00;;;;;21.96;65.87;100778.94;5061928;28;45356;-61
2022/06/23 05:53:41;;;;;;;;;13.75;9.75;;;;;22.06;65.83;100776.97;5049789;28;45424;-64
2022/06/23 05:56:23;;;;;;;;;6.50;4.75;;;;;22.16;65.92;100777.69;5062471;28;45354;-65
2022/06/23 05:58:56;;;;;;;;;3.50;3.50;;;;;22.28;65.19;100784.44;5062374;28;45504;-69
2022/06/23 06:01:36;;;;;;;;;5.75;5.50;;;;;22.40;65.15;100779.56;5062249;28;45474;-59
2022/06/23 06:04:24;;;;;;;;;10.50;6.50;;;;;22.51;65.31;100759.59;5065196;28;45235;-59
2022/06/23 06:06:50;;;;;;;;;7.75;5.00;;;;;22.60;64.85;100774.72;5061832;28;45597;-59
2022/06/23 06:09:37;;;;;;;;;5.25;4.25;;;;;22.65;64.47;100763.44;5060989;28;45487;-59
2022/06/23 06:12:13;;;;;;;;;4.00;4.00;;;;;22.66;64.84;100765.97;5062075;28;45607;-59
2022/06/23 06:14:44;;;;;;;;;5.00;5.00;;;;;22.66;64.56;100763.28;5062656;28;45355;-59
2022/06/23 06:17:18;;;;;;;;;11.00;5.00;;;;;22.73;64.18;100766.97;5062603;28;45275;-63
2022/06/23 06:19:44;;;;;;;;;7.00;5.00;;;;;22.83;64.50;100769.50;5062389;28;45314;-64
2022/06/23 06:22:32;;;;;;;;;8.25;3.25;;;;;22.91;63.77;100760.59;5062310;28;45178;-67
2022/06/23 06:25:01;;;;;;;;;5.75;5.75;;;;;22.98;63.82;100762.44;5061983;28;45427;-66
2022/06/23 06:27:26;;;;;;;;;6.00;5.75;;;;;23.05;63.34;100767.97;5062108;28;45396;-65
2022/06/23 06:29:53;;;;;;;;;6.50;6.00;;;;;23.03;63.40;100770.00;5062366;28;45316;-66
2022/06/23 06:32:37;;;;;;;;;4.75;4.75;;;;;23.01;63.44;100772.84;5062143;28;45274;-66
2022/06/23 06:35:16;;;;;;;;;8.00;6.00;;;;;22.94;62.64;100776.41;5060622;28;45291;-65
2022/06/23 06:37:47;;;;;;;;;5.25;4.50;;;;;22.89;62.65;100776.06;5062246;28;45271;-66
2022/06/23 06:40:13;;;;;;;;;9.50;6.50;;;;;22.92;62.77;100778.41;5061673;28;45350;-66
2022/06/23 06:42:52;;;;;;;;;8.00;6.00;;;;;23.01;62.84;100767.47;5061614;28;45334;-66
2022/06/23 06:45:22;;;;;;;;;8.50;5.50;;;;;23.12;62.75;100764.41;5062148;28;45583;-66
2022/06/23 06:47:47;;;;;;;;;5.00;5.00;;;;;23.24;62.52;100762.22;5061932;28;45442;-66
2022/06/23 06:50:34;;;;;;;;;8.75;6.00;;;;;23.34;62.36;100773.59;5060629;28;45636;-66
2022/06/23 06:53:06;;;;;;;;;5.50;5.50;;;;;23.45;62.04;100767.00;5066600;28;45464;-66
2022/06/23 06:55:46;;;;;;;;;7.00;5.50;;;;;23.54;62.37;100765.97;5061557;28;45387;-66
2022/06/23 06:58:24;;;;;;;;;8.25;7.25;;;;;23.63;62.13;100777.56;5061830;28;45238;-66
2022/06/23 07:00:58;;;;;;;;;6.00;6.00;;;;;23.66;61.92;100771.84;5061981;28;45412;-66
2022/06/23 07:03:25;;;;;;;;;6.00;5.25;;;;;23.65;61.44;100783.59;5061326;28;45469;-66
2022/06/23 07:06:03;;;;;;;;;7.25;6.00;;;;;23.63;61.64;100782.94;5061548;28;45338;-66
2022/06/23 07:08:45;;;;;;;;;6.25;6.00;;;;;23.58;61.46;100771.84;5062117;28;45371;-69
2022/06/23 07:11:21;;;;;;;;;7.25;6.25;;;;;23.52;61.24;100778.75;5061677;28;45328;-67
2022/06/23 07:14:07;;;;;;;;;10.25;8.00;;;;;23.53;60.88;100782.25;5061517;28;46393;-68
2022/06/23 07:16:46;;;;;;;;;9.50;6.50;;;;;23.53;60.89;100775.03;5061711;28;45260;-69
2022/06/23 07:19:27;;;;;;;;;7.00;7.00;;;;;23.56;60.97;100755.03;5061305;28;45242;-64
2022/06/23 07:22:09;;;;;;;;;8.25;6.50;;;;;23.55;60.61;100769.50;5062164;28;45314;-67
2022/06/23 07:24:50;;;;;;;;;10.00;8.00;;;;;23.50;60.66;100778.09;5061232;28;46567;-65
2022/06/23 07:27:35;;;;;;;;;6.50;6.00;;;;;23.44;60.57;100789.53;5060563;28;45658;-65
2022/06/23 07:30:10;;;;;;;;;9.25;7.00;;;;;23.47;60.48;100793.75;5061609;28;45279;-66
2022/06/23 07:33:01;;;;;;;;;8.00;7.75;;;;;23.49;60.44;100799.78;5061604;28;45517;-65
2022/06/23 07:35:47;;;;;;;;;9.00;7.50;;;;;23.51;60.23;100798.56;5061195;28;46206;-66
2022/06/23 07:38:22;;;;;;;;;9.75;9.25;;;;;23.50;60.07;100791.53;5060821;28;46292;-65
2022/06/23 07:40:54;;;;;;;;;7.50;6.25;;;;;23.48;59.97;100800.78;5060336;28;45409;-65
2022/06/23 07:43:34;;;;;;;;;8.25;7.25;;;;;23.48;59.88;100798.09;5061313;28;45468;-66
2022/06/23 07:46:01;;;;;;;;;7.75;7.00;;;;;23.54;60.02;100803.63;5060903;28;45291;-65
2022/06/23 07:48:31;;;;;;;;;7.00;6.50;;;;;23.61;59.63;100810.00;5060414;28;45180;-65
2022/06/23 07:50:58;;;;;;;;;9.75;5.00;;;;;23.65;59.96;100800.56;5061111;28;45248;-66
2022/06/23 07:53:31;;;;;;;;;7.50;7.25;;;;;23.69;59.65;100801.06;5066133;28;45265;-65
2022/06/23 07:55:56;;;;;;;;;11.25;5.00;;;;;23.72;59.25;100798.03;5060660;28;46255;-65
2022/06/23 07:58:28;;;;;;;;;8.00;6.00;;;;;23.74;59.57;100795.16;5060831;28;45346;-66
2022/06/23 08:01:01;;;;;;;;;9.00;7.50;;;;;23.73;59.08;100806.94;5061123;28;45480;-66
2022/06/23 08:03:50;;;;;;;;;7.25;6.50;;;;;23.70;59.00;100801.91;5060974;28;45265;-66
2022/06/23 08:06:18;;;;;;;;;8.00;5.75;;;;;23.70;59.08;100802.75;5060925;28;45368;-65
2022/06/23 08:08:45;;;;;;;;;6.50;5.00;;;;;23.75;58.87;100791.47;5060659;28;45210;-66
2022/06/23 08:14:15;;;;;;;;;8.00;5.50;;;;;23.84;59.01;100796.63;5061032;28;45297;-66
2022/06/23 08:16:49;;;;;;;;;7.00;5.25;;;;;23.85;58.32;100794.75;5060849;28;45500;-65
2022/06/23 08:19:15;;;;;;;;;6.25;5.75;;;;;23.92;58.39;100799.25;5060803;28;45228;-65
2022/06/23 08:21:51;;;;;;;;;6.75;6.00;;;;;23.98;58.16;100807.66;5060812;28;45490;-66
2022/06/23 08:24:23;;;;;;;;;6.75;6.00;;;;;24.04;58.64;100796.19;5061111;28;45178;-66
2022/06/23 08:27:09;;;;;;;;;7.25;6.00;;;;;24.12;58.06;100796.16;5060083;28;45429;-66
2022/06/23 08:29:42;;;;;;;;;6.00;6.00;;;;;24.17;58.08;100789.22;5060573;28;45230;-66
2022/06/23 08:32:09;;;;;;;;;8.75;5.50;;;;;24.20;57.88;100793.41;5060580;28;45464;-66
2022/06/23 08:34:37;;;;;;;;;7.75;7.00;;;;;24.21;57.53;100795.91;5060908;28;45260;-66
2022/06/23 08:37:15;;;;;;;;;7.00;6.25;;;;;24.22;57.87;100794.06;5060412;28;46289;-65
2022/06/23 08:39:54;;;;;;;;;7.75;6.50;;;;;24.28;57.56;100790.66;5060286;28;45329;-66
2022/06/23 08:42:36;;;;;;;;;6.25;6.00;;;;;24.33;57.88;100803.59;5058877;28;45539;-66
2022/06/23 08:45:10;;;;;;;;;8.75;6.25;;;;;24.32;57.25;100802.75;5060333;28;45267;-65
2022/06/23 08:47:59;;;;;;;;;9.00;6.25;;;;;24.32;57.78;100802.75;5060071;28;46002;-65
2022/06/23 08:50:31;;;;;;;;;8.00;7.25;;;;;24.35;57.21;100802.41;5060072;28;45275;-65
2022/06/23 08:52:59;;;;;;;;;19.25;15.75;;;;;24.38;56.97;100791.28;5065013;28;45428;-66
2022/06/23 08:56:08;;;;;;;;;9.50;6.50;;;;;24.46;57.29;100796.59;5060166;28;45469;-66
2022/06/23 08:58:47;;;;;;;;;7.00;7.00;;;;;24.54;57.47;100794.88;5051357;28;46008;-66
2022/06/23 09:01:24;;;;;;;;;9.25;8.50;;;;;24.58;57.40;100790.81;5062821;28;45285;-66
2022/06/23 09:04:14;;;;;;;;;8.00;6.25;;;;;24.63;56.87;100791.91;5063654;28;45417;-66
2022/06/23 09:07:11;;;;;;;;;6.75;5.50;;;;;24.69;56.45;100798.44;5063925;28;45381;-66
2022/06/23 09:10:15;;;;;;;;;9.75;7.50;;;;;24.72;56.61;100796.22;5053819;28;46337;-66
2022/06/23 09:12:50;;;;;;;;;9.75;7.00;;;;;24.77;56.45;100788.44;5041173;28;45555;-66
2022/06/23 09:15:38;;;;;;;;;7.00;7.00;;;;;24.83;56.48;100786.88;5041385;28;45352;-65
2022/06/23 09:18:22;;;;;;;;;8.00;6.25;;;;;24.87;56.69;100787.34;5036359;28;45605;-66
2022/06/23 09:20:48;;;;;;;;;6.00;6.00;;;;;24.87;55.93;100787.34;5063083;28;45434;-66
2022/06/23 09:23:19;;;;;;;;;8.75;6.00;;;;;24.92;56.32;100796.56;5063481;28;45323;-66
2022/06/23 09:25:54;;;;;;;;;4.25;4.25;;;;;24.98;55.91;100797.69;5063380;28;45272;-66
2022/06/23 09:28:25;;;;;;;;;4.25;4.25;;;;;25.03;56.11;100790.75;5063410;28;45422;-65
2022/06/23 09:30:51;;;;;;;;;7.75;6.75;;;;;25.13;55.51;100784.25;5063269;28;45290;-66
2022/06/23 09:33:53;;;;;;;;;7.00;4.75;;;;;25.21;55.96;100789.56;5063167;28;45228;-66
2022/06/23 09:36:28;;;;;;;;;8.00;8.00;;;;;25.28;55.86;100785.13;5063222;28;45478;-66
2022/06/23 09:39:11;;;;;;;;;7.75;6.00;;;;;25.35;55.49;100777.94;5063304;28;45524;-66
2022/06/23 09:41:52;;;;;;;;;8.50;7.25;;;;;25.46;55.42;100776.63;5062421;28;45466;-66
2022/06/23 09:44:29;;;;;;;;;7.50;7.00;;;;;25.55;55.38;100780.91;5063106;28;45235;-63
2022/06/23 09:47:09;;;;;;;;;5.00;5.00;;;;;25.52;55.14;100778.59;5062997;28;45352;-64
2022/06/23 09:49:44;;;;;;;;;5.00;5.00;;;;;25.54;54.96;100776.53;5062868;28;45387;-64
2022/06/23 09:52:41;;;;;;;;;7.50;5.75;;;;;25.62;54.84;100776.44;5064940;28;46216;-64
2022/06/23 09:55:09;;;;;;;;;6.75;6.50;;;;;25.57;54.57;100778.84;5028427;28;45538;-66
2022/06/23 09:57:43;;;;;;;;;10.00;6.50;;;;;25.55;54.34;100773.66;5062558;28;45341;-66
2022/06/23 10:00:15;;;;;;;;;7.25;5.50;;;;;25.53;54.40;100778.41;5062479;28;45450;-66
2022/06/23 10:03:10;;;;;;;;;6.50;5.00;;;;;25.51;54.18;100769.63;5059932;28;46271;-65
2022/06/23 10:05:54;;;;;;;;;3.75;3.50;;;;;25.52;53.91;100770.50;5062211;28;45370;-67
2022/06/23 10:08:37;;;;;;;;;7.00;7.00;;;;;25.46;53.99;100779.34;5062793;28;45379;-66
2022/06/23 10:11:40;;;;;;;;;7.00;7.00;;;;;25.41;54.21;100773.66;5061829;28;45390;-67
2022/06/23 10:14:23;;;;;;;;;6.00;6.00;;;;;25.50;53.66;100778.75;5062341;28;46291;-66
2022/06/23 10:17:19;;;;;;;;;5.75;5.25;;;;;25.64;53.45;100778.94;5062406;28;45341;-66
2022/06/23 10:20:03;;;;;;;;;5.00;4.75;;;;;25.75;53.53;100784.75;5062319;28;45307;-66
2022/06/23 10:22:31;;;;;;;;;7.00;5.75;;;;;25.78;53.58;100775.41;5062438;28;45347;-67
2022/06/23 10:25:18;;;;;;;;;5.75;5.75;;;;;25.69;53.66;100776.53;5061603;28;46117;-67
2022/06/23 10:28:06;;;;;;;;;8.50;7.00;;;;;25.67;53.32;100782.09;5062176;28;45454;-67
2022/06/23 10:30:38;;;;;;;;;7.75;6.75;;;;;25.70;53.52;100773.63;5062396;28;45175;-67
2022/06/23 10:33:12;;;;;;;;;6.00;5.25;;;;;25.73;53.30;100775.13;5062349;28;45456;-66
2022/06/23 10:35:49;;;;;;;;;8.75;7.50;;;;;25.75;53.29;100770.38;5062144;28;45328;-67
2022/06/23 10:38:52;;;;;;;;;6.25;5.75;;;;;25.74;53.17;100763.31;5062047;28;45306;-67
2022/06/23 10:41:29;;;;;;;;;7.25;6.75;;;;;25.92;52.92;100760.22;5061565;28;45338;-66
2022/06/23 10:44:21;;;;;;;;;9.25;7.50;;;;;26.07;53.10;100761.84;5062080;28;45259;-67
2022/06/23 10:46:57;;;;;;;;;8.75;8.50;;;;;26.09;52.76;100761.66;5061856;28;45391;-67
2022/06/23 10:49:40;;;;;;;;;9.00;8.25;;;;;26.06;52.76;100757.44;5061804;28;45638;-67
2022/06/23 10:52:28;;;;;;;;;8.50;8.50;;;;;26.03;52.78;100760.56;5063543;28;45458;-67
2022/06/23 10:55:09;;;;;;;;;6.00;6.00;;;;;26.03;52.49;100749.75;5061702;28;45259;-67
2022/06/23 10:57:42;;;;;;;;;7.00;7.00;;;;;26.09;52.37;100757.09;5061731;28;45452;-67
2022/06/23 11:00:17;;;;;;;;;8.25;7.50;;;;;26.24;52.42;100756.19;5061785;28;45430;-67
2022/06/23 11:02:58;;;;;;;;;7.75;7.00;;;;;26.42;52.33;100756.59;5059661;28;45316;-67
2022/06/23 11:05:54;;;;;;;;;7.00;6.00;;;;;26.58;52.25;100756.34;5061783;28;45267;-67
2022/06/23 11:08:34;;;;;;;;;1.00;1.00;;;;;26.78;52.40;100755.66;5061810;28;45221;-67
2022/06/23 11:11:21;;;;;;;;;5.00;5.00;;;;;26.90;51.94;100748.69;5061075;28;45353;-67
2022/06/23 11:13:52;;;;;;;;;9.75;7.50;;;;;26.89;51.87;100757.81;5061786;28;45328;-67
2022/06/23 11:16:30;;;;;;;;;6.00;6.00;;;;;26.88;51.52;100748.88;5061872;28;45467;-67
2022/06/23 11:19:33;;;;;;;;;9.00;7.75;;;;;26.79;51.30;100746.53;5061273;28;45379;-67
2022/06/23 11:22:18;;;;;;;;;10.75;8.25;;;;;26.78;51.38;100745.69;5060280;28;45371;-67
2022/06/23 11:25:04;;;;;;;;;6.25;5.75;;;;;26.73;51.36;100750.00;5061551;28;45284;-66
2022/06/23 11:27:59;;;;;;;;;7.25;7.25;;;;;26.66;51.18;100729.16;5061152;28;45324;-67
2022/06/23 11:30:53;;;;;;;;;5.00;4.50;;;;;26.61;51.34;100737.00;5060924;28;45245;-67
2022/06/23 11:33:43;;;;;;;;;27.00;22.25;;;;;26.73;50.71;100733.78;5061199;28;45298;-67
2022/06/23 11:36:27;;;;;;;;;4.50;3.50;;;;;26.80;50.48;100737.38;5061314;28;45252;-65
2022/06/23 11:38:55;;;;;;;;;9.50;7.50;;;;;26.90;50.58;100729.75;5061151;28;45503;-65
2022/06/23 11:41:54;;;;;;;;;24.75;19.75;;;;;27.04;50.46;100726.13;5060436;28;46116;-65
2022/06/23 11:44:45;;;;;;;;;8.25;8.00;;;;;27.11;50.29;100726.19;5060854;28;45374;-65
2022/06/23 11:47:28;;;;;;;;;13.75;12.75;;;;;27.14;50.08;100726.59;5061466;28;45163;-65
2022/06/23 11:50:19;;;;;;;;;19.50;18.25;;;;;27.26;50.10;100724.19;5060943;28;45219;-65
2022/06/23 11:53:15;;;;;;;;;6.00;6.00;;;;;27.43;49.78;100711.97;5064919;28;46788;-67
2022/06/23 11:55:58;;;;;;;;;8.00;7.00;;;;;27.57;49.88;100715.59;5060676;28;45390;-67
2022/06/23 11:58:56;;;;;;;;;5.50;5.00;;;;;27.69;49.97;100715.84;5061135;28;45323;-66
2022/06/23 12:01:24;;;;;;;;;2.00;2.00;;;;;27.73;49.01;100712.53;5061164;28;45315;-67
2022/06/23 12:04:08;;;;;;;;;5.75;5.25;;;;;27.61;49.31;100699.75;5060453;28;46077;-67
2022/06/23 12:06:52;;;;;;;;;8.00;6.25;;;;;27.64;48.98;100699.34;5060750;28;45295;-67
2022/06/23 12:09:46;;;;;;;;;10.00;6.50;;;;;27.76;49.00;100695.06;5060819;28;45425;-67
2022/06/23 12:12:11;;;;;;;;;8.00;8.00;;;;;27.69;48.97;100692.31;5060640;28;45319;-66
2022/06/23 12:14:37;;;;;;;;;6.00;6.00;;;;;27.66;48.71;100687.28;5060871;28;45352;-67
2022/06/23 12:17:16;;;;;;;;;6.50;6.50;;;;;27.58;48.65;100687.47;5060824;28;45280;-66
2022/06/23 12:19:51;;;;;;;;;6.50;6.00;;;;;27.54;48.40;100675.38;5060706;28;45284;-66
2022/06/23 12:22:35;;;;;;;;;9.50;7.00;;;;;27.69;48.37;100681.50;5060655;28;45162;-66